createdAt,value
2022-07-29T00:01:44.002Z,4.38
2022-07-29T00:04:11.877Z,3.92
2022-07-29T00:06:39.865Z,5.80
2022-07-29T00:09:07.681Z,3.67
2022-07-29T00:11:35.190Z,3.75
2022-07-29T00:14:03.138Z,4.47
2022-07-29T00:16:30.860Z,3.60
2022-07-29T00:19:02.337Z,4.13
2022-07-29T00:21:30.176Z,7.20
2022-07-29T00:23:57.602Z,4.75
2022-07-29T00:26:25.306Z,3.78
2022-07-29T00:29:02.059Z,5.18
2022-07-29T00:31:40.186Z,5.47
2022-07-29T00:34:30.558Z,4.32
2022-07-29T00:36:57.322Z,5.10
2022-07-29T00:39:25.088Z,3.67
2022-07-29T00:41:54.961Z,4.05
2022-07-29T00:44:22.421Z,4.33
2022-07-29T00:46:50.077Z,6.07
2022-07-29T00:49:19.055Z,6.30
2022-07-29T00:51:46.575Z,3.40
2022-07-29T00:54:14.714Z,4.00
2022-07-29T00:56:42.317Z,5.80
2022-07-29T00:59:09.769Z,5.18
2022-07-29T01:01:37.267Z,3.70
2022-07-29T01:04:04.824Z,4.38
2022-07-29T01:06:34.399Z,4.68
2022-07-29T01:09:02.182Z,3.70
2022-07-29T01:11:29.595Z,5.80
2022-07-29T01:13:57.404Z,4.50
2022-07-29T01:16:27.570Z,4.20
2022-07-29T01:18:58.824Z,5.03
2022-07-29T01:21:36.357Z,4.37
2022-07-29T01:24:20.207Z,4.30
2022-07-29T01:26:48.859Z,5.40
2022-07-29T01:29:20.640Z,5.10
2022-07-29T01:31:59.563Z,5.32
2022-07-29T01:34:31.754Z,4.50
2022-07-29T01:37:04.025Z,6.28
2022-07-29T01:39:33.546Z,6.07
2022-07-29T01:42:03.652Z,5.82
2022-07-29T01:44:36.248Z,5.47
2022-07-29T01:47:07.099Z,5.00
2022-07-29T01:49:37.708Z,4.32
2022-07-29T01:52:07.451Z,6.80
2022-07-29T01:54:37.547Z,4.70
2022-07-29T01:57:06.687Z,5.30
2022-07-29T01:59:38.445Z,7.13
2022-07-29T02:02:06.752Z,5.85
2022-07-29T02:04:35.582Z,4.78
2022-07-29T02:07:05.970Z,4.75
2022-07-29T02:09:35.369Z,4.30
2022-07-29T02:12:04.322Z,5.07
2022-07-29T02:14:35.263Z,6.25
2022-07-29T02:17:04.224Z,4.18
2022-07-29T02:19:33.392Z,5.93
2022-07-29T02:22:01.778Z,6.65
2022-07-29T02:24:30.539Z,5.10
2022-07-29T02:26:58.824Z,4.82
2022-07-29T02:29:27.405Z,5.05
2022-07-29T02:31:55.709Z,4.30
2022-07-29T02:34:25.350Z,5.70
2022-07-29T02:36:53.435Z,4.63
2022-07-29T02:39:21.448Z,4.80
2022-07-29T02:41:49.979Z,5.65
2022-07-29T02:44:18.609Z,4.90
2022-07-29T02:46:49.836Z,4.55
2022-07-29T02:49:18.936Z,4.80
2022-07-29T02:51:51.483Z,4.38
2022-07-29T02:54:24.471Z,7.40
2022-07-29T02:56:54.593Z,6.28
2022-07-29T02:59:23.991Z,4.63
2022-07-29T03:01:51.879Z,6.10
2022-07-29T03:04:21.337Z,4.18
2022-07-29T03:06:50.710Z,4.72
2022-07-29T03:09:18.531Z,6.93
2022-07-29T03:11:49.562Z,4.88
2022-07-29T03:14:19.453Z,6.03
2022-07-29T03:16:47.801Z,5.13
2022-07-29T03:19:15.556Z,5.68
2022-07-29T03:21:43.018Z,5.50
2022-07-29T03:24:11.853Z,6.15
2022-07-29T03:26:39.728Z,5.67
2022-07-29T03:29:07.401Z,6.35
2022-07-29T03:31:35.330Z,4.97
2022-07-29T03:34:02.789Z,4.95
2022-07-29T03:36:30.292Z,5.10
2022-07-29T03:38:57.902Z,6.07
2022-07-29T03:41:27.064Z,6.10
2022-07-29T03:43:54.951Z,6.28
2022-07-29T03:46:24.554Z,5.47
2022-07-29T03:48:54.660Z,6.15
2022-07-29T03:51:33.207Z,5.73
2022-07-29T03:54:06.189Z,5.93
2022-07-29T03:56:40.223Z,4.93
2022-07-29T03:59:08.344Z,6.63
2022-07-29T04:01:36.278Z,5.10
2022-07-29T04:04:04.790Z,5.17
2022-07-29T04:06:39.526Z,7.30
2022-07-29T04:09:07.463Z,6.38
2022-07-29T04:12:01.795Z,6.47
2022-07-29T04:14:27.583Z,7.43
2022-07-29T04:16:54.993Z,5.70
2022-07-29T04:19:22.453Z,6.38
2022-07-29T04:21:49.888Z,5.75
2022-07-29T04:24:18.018Z,6.22
2022-07-29T04:26:47.319Z,6.90
2022-07-29T04:29:15.252Z,8.20
2022-07-29T04:31:43.031Z,7.00
2022-07-29T04:34:11.024Z,5.80
2022-07-29T04:36:38.433Z,5.60
2022-07-29T04:39:05.905Z,6.63
2022-07-29T04:41:33.878Z,7.27
2022-07-29T04:44:07.058Z,7.28
2022-07-29T04:46:35.232Z,6.55
2022-07-29T04:49:02.910Z,6.03
2022-07-29T04:51:30.457Z,5.57
2022-07-29T04:53:58.008Z,7.00
2022-07-29T04:56:25.525Z,8.18
2022-07-29T04:58:53.228Z,6.05
2022-07-29T05:01:23.843Z,7.07
2022-07-29T05:03:52.424Z,6.50
2022-07-29T05:06:21.469Z,5.40
2022-07-29T05:08:48.875Z,7.18
2022-07-29T05:11:21.341Z,7.03
2022-07-29T05:13:52.277Z,6.63
2022-07-29T05:16:19.745Z,6.78
2022-07-29T05:18:48.585Z,6.30
2022-07-29T05:21:16.058Z,5.55
2022-07-29T05:23:43.560Z,5.57
2022-07-29T05:26:10.984Z,5.32
2022-07-29T05:28:38.695Z,5.95
2022-07-29T05:31:06.201Z,6.20
2022-07-29T05:33:36.105Z,5.80
2022-07-29T05:36:07.757Z,5.93
2022-07-29T05:38:36.370Z,5.90
2022-07-29T05:41:03.852Z,5.60
2022-07-29T05:43:31.775Z,6.70
2022-07-29T05:45:59.544Z,5.13
2022-07-29T05:48:27.330Z,5.10
2022-07-29T05:50:57.343Z,4.75
2022-07-29T05:53:26.223Z,5.53
2022-07-29T05:55:53.861Z,5.53
2022-07-29T05:58:21.852Z,5.65
2022-07-29T06:00:49.489Z,4.82
2022-07-29T06:03:17.561Z,5.60
2022-07-29T06:05:45.401Z,4.57
2022-07-29T06:08:13.001Z,6.07
2022-07-29T06:10:42.057Z,5.78
2022-07-29T06:13:09.771Z,4.75
2022-07-29T06:15:37.442Z,6.47
2022-07-29T06:18:04.994Z,6.45
2022-07-29T06:20:33.263Z,5.00
2022-07-29T06:23:01.241Z,5.63
2022-07-29T06:25:30.147Z,5.57
2022-07-29T06:28:02.300Z,4.88
2022-07-29T06:30:30.240Z,4.88
2022-07-29T06:32:58.163Z,7.17
2022-07-29T06:35:39.490Z,4.70
2022-07-29T06:38:30.768Z,5.28
2022-07-29T06:41:04.548Z,6.70
2022-07-29T06:43:34.964Z,7.18
2022-07-29T06:46:03.478Z,6.23
2022-07-29T06:48:31.128Z,6.22
2022-07-29T06:50:58.983Z,4.72
2022-07-29T06:53:26.418Z,6.15
2022-07-29T06:55:53.957Z,6.05
2022-07-29T06:58:21.769Z,5.67
2022-07-29T07:00:50.635Z,5.05
2022-07-29T07:03:18.174Z,5.97
2022-07-29T07:05:45.996Z,5.15
2022-07-29T07:08:14.027Z,5.00
2022-07-29T07:10:41.777Z,7.00
2022-07-29T07:13:09.271Z,5.25
2022-07-29T07:15:39.243Z,5.53
2022-07-29T07:18:08.944Z,5.72
2022-07-29T07:20:36.647Z,5.90
2022-07-29T07:23:04.102Z,6.77
2022-07-29T07:25:31.837Z,4.95
2022-07-29T07:27:59.328Z,5.13
2022-07-29T07:30:26.792Z,5.15
2022-07-29T07:32:54.217Z,5.13
2022-07-29T07:35:23.034Z,6.23
2022-07-29T07:37:50.543Z,6.70
2022-07-29T07:40:18.831Z,5.10
2022-07-29T07:42:46.531Z,7.80
2022-07-29T07:45:16.419Z,5.65
2022-07-29T07:47:44.213Z,6.43
2022-07-29T07:50:18.374Z,6.25
2022-07-29T07:52:51.624Z,5.78
2022-07-29T07:55:19.614Z,5.63
2022-07-29T07:57:47.060Z,4.53
2022-07-29T08:00:15.690Z,6.17
2022-07-29T08:02:44.268Z,5.75
2022-07-29T08:05:13.100Z,6.50
2022-07-29T08:07:40.669Z,8.00
2022-07-29T08:10:10.119Z,5.25
2022-07-29T08:12:37.945Z,5.70
2022-07-29T08:15:07.664Z,5.80
2022-07-29T08:17:35.645Z,4.97
2022-07-29T08:20:03.111Z,6.13
2022-07-29T08:22:30.924Z,5.88
2022-07-29T08:24:58.397Z,5.77
2022-07-29T08:27:43.032Z,4.95
2022-07-29T08:30:11.490Z,6.50
2022-07-29T08:32:55.726Z,6.00
2022-07-29T08:35:24.382Z,5.60
2022-07-29T08:37:52.521Z,6.27
2022-07-29T08:40:20.013Z,5.28
2022-07-29T08:43:01.169Z,7.68
2022-07-29T08:45:30.017Z,6.72
2022-07-29T08:48:00.434Z,5.60
2022-07-29T08:50:28.058Z,5.07
2022-07-29T08:52:59.703Z,6.63
2022-07-29T08:55:27.855Z,5.93
2022-07-29T08:57:57.378Z,6.57
2022-07-29T09:00:27.118Z,5.32
2022-07-29T09:02:59.732Z,5.17
2022-07-29T09:05:28.048Z,6.85
2022-07-29T09:07:55.671Z,7.82
2022-07-29T09:10:23.274Z,7.10
2022-07-29T09:12:50.809Z,7.93
2022-07-29T09:15:19.533Z,5.80
2022-07-29T09:17:49.236Z,6.20
2022-07-29T09:20:18.058Z,5.30
2022-07-29T09:22:48.137Z,5.10
2022-07-29T09:25:15.794Z,8.82
2022-07-29T09:27:43.313Z,6.73
2022-07-29T09:30:12.408Z,5.90
2022-07-29T09:32:54.735Z,6.35
2022-07-29T09:35:25.344Z,8.82
2022-07-29T09:37:53.290Z,6.32
2022-07-29T09:40:21.860Z,5.63
2022-07-29T09:42:49.562Z,6.00
2022-07-29T09:45:28.696Z,6.88
2022-07-29T09:47:58.352Z,6.22
2022-07-29T09:50:36.293Z,5.75
2022-07-29T09:53:03.742Z,5.57
2022-07-29T09:55:31.313Z,5.95
2022-07-29T09:58:17.326Z,7.18
2022-07-29T10:00:45.220Z,5.10
2022-07-29T10:03:12.775Z,6.20
2022-07-29T10:05:43.028Z,6.57
2022-07-29T10:08:10.803Z,5.40
2022-07-29T10:10:39.353Z,6.25
2022-07-29T10:13:11.019Z,5.68
2022-07-29T10:15:45.998Z,7.18
2022-07-29T10:18:14.656Z,6.67
2022-07-29T10:20:43.635Z,6.72
2022-07-29T10:23:11.403Z,6.45
2022-07-29T10:25:38.832Z,5.32
2022-07-29T10:28:07.634Z,4.65
2022-07-29T10:30:35.347Z,6.07
2022-07-29T10:33:17.625Z,5.20
2022-07-29T10:36:02.733Z,4.78
2022-07-29T10:38:45.756Z,8.60
2022-07-29T10:41:32.467Z,5.18
2022-07-29T10:44:05.562Z,7.10
2022-07-29T10:46:36.715Z,5.10
2022-07-29T10:49:08.208Z,5.60
2022-07-29T10:51:55.739Z,5.75
2022-07-29T10:57:19.467Z,5.72
2022-07-29T10:59:49.023Z,3.50
2022-07-29T11:02:43.954Z,5.18
2022-07-29T11:05:12.959Z,6.47
2022-07-29T11:07:46.328Z,5.38
2022-07-29T11:10:31.028Z,5.18
2022-07-29T11:13:00.536Z,4.83
2022-07-29T11:15:28.628Z,5.93
2022-07-29T11:18:05.664Z,6.32
2022-07-29T11:20:37.788Z,6.53
2022-07-29T11:23:19.477Z,4.20
2022-07-29T11:25:50.667Z,5.37
2022-07-29T11:28:25.176Z,4.85
2022-07-29T11:30:53.562Z,6.47
2022-07-29T11:33:54.100Z,5.50
2022-07-29T11:36:18.474Z,4.93
2022-07-29T11:38:45.929Z,5.60
2022-07-29T11:41:27.429Z,5.10
2022-07-29T11:43:57.050Z,5.53
2022-07-29T11:46:43.060Z,5.43
2022-07-29T11:49:11.265Z,5.38
2022-07-29T11:51:48.108Z,6.43
2022-07-29T11:54:18.911Z,5.55
2022-07-29T11:56:55.922Z,3.72
2022-07-29T11:59:33.134Z,4.30
2022-07-29T12:02:32.964Z,5.00
2022-07-29T12:04:51.214Z,9.73
2022-07-29T12:07:20.290Z,3.63
2022-07-29T12:09:51.590Z,6.20
2022-07-29T12:12:19.867Z,5.22
2022-07-29T12:14:48.671Z,6.25
2022-07-29T12:17:30.557Z,6.47
2022-07-29T12:20:00.526Z,4.45
2022-07-29T12:22:30.885Z,7.00
2022-07-29T12:25:30.336Z,4.90
2022-07-29T12:27:59.714Z,6.60
2022-07-29T12:30:39.852Z,4.20
2022-07-29T12:33:19.538Z,6.35
2022-07-29T12:35:58.059Z,5.10
2022-07-29T12:38:31.416Z,5.20
2022-07-29T12:40:59.088Z,5.05
2022-07-29T12:43:26.952Z,4.53
2022-07-29T12:45:56.997Z,4.90
2022-07-29T12:48:34.788Z,4.82
2022-07-29T12:51:02.821Z,5.25
2022-07-29T12:53:30.597Z,5.00
2022-07-29T12:56:00.611Z,5.73
2022-07-29T12:58:29.402Z,4.95
2022-07-29T13:01:17.210Z,4.10
2022-07-29T13:03:57.530Z,5.20
2022-07-29T13:06:32.646Z,9.73
2022-07-29T13:09:00.740Z,5.83
2022-07-29T13:11:32.065Z,4.70
2022-07-29T13:14:05.680Z,5.40
2022-07-29T13:16:35.375Z,7.88
2022-07-29T13:19:10.187Z,4.97
2022-07-29T13:21:38.002Z,4.97
2022-07-29T13:24:05.898Z,7.82
2022-07-29T13:26:33.433Z,6.70
2022-07-29T13:29:01.013Z,6.05
2022-07-29T13:31:28.615Z,4.25
2022-07-29T13:33:57.501Z,6.47
2022-07-29T13:36:25.091Z,5.53
2022-07-29T13:38:52.497Z,5.47
2022-07-29T13:41:19.957Z,4.20
2022-07-29T13:43:47.518Z,5.85
2022-07-29T13:46:17.741Z,6.50
2022-07-29T13:48:45.450Z,6.13
2022-07-29T13:51:18.619Z,7.63
2022-07-29T13:53:46.077Z,5.60
2022-07-29T13:56:13.511Z,5.35
2022-07-29T13:58:42.826Z,6.27
2022-07-29T14:01:10.330Z,6.60
2022-07-29T14:03:41.628Z,6.78
2022-07-29T14:06:14.242Z,4.75
2022-07-29T14:08:43.841Z,4.60
2022-07-29T14:11:11.526Z,5.13
2022-07-29T14:13:38.934Z,5.28
2022-07-29T14:16:07.957Z,6.43
2022-07-29T14:18:35.463Z,9.32
2022-07-29T14:21:02.967Z,5.05
2022-07-29T14:23:30.678Z,6.90
2022-07-29T14:25:59.452Z,5.20
2022-07-29T14:28:29.563Z,5.32
2022-07-29T14:30:57.191Z,7.40
2022-07-29T14:33:24.606Z,6.25
2022-07-29T14:35:52.224Z,8.63
2022-07-29T14:38:19.880Z,7.40
2022-07-29T14:40:48.058Z,6.00
2022-07-29T14:43:19.853Z,5.60
2022-07-29T14:45:49.276Z,6.13
2022-07-29T14:48:16.728Z,7.57
2022-07-29T14:50:45.425Z,7.35
2022-07-29T14:53:13.076Z,4.43
2022-07-29T14:55:41.291Z,5.70
2022-07-29T14:58:13.250Z,4.95
2022-07-29T15:00:44.994Z,5.47
2022-07-29T15:03:12.435Z,6.53
2022-07-29T15:05:50.381Z,5.20
2022-07-29T15:08:17.932Z,6.32
2022-07-29T15:10:45.366Z,6.85
2022-07-29T15:13:12.784Z,4.47
2022-07-29T15:15:40.366Z,4.38
2022-07-29T15:18:10.045Z,7.13
2022-07-29T15:20:37.632Z,6.82
2022-07-29T15:23:05.103Z,7.55
2022-07-29T15:25:33.919Z,6.90
2022-07-29T15:28:03.870Z,4.85
2022-07-29T15:30:34.668Z,6.32
2022-07-29T15:33:02.715Z,7.13
2022-07-29T15:35:31.548Z,6.47
2022-07-29T15:37:59.049Z,6.37
2022-07-29T15:40:26.475Z,6.63
2022-07-29T15:42:53.871Z,5.70
2022-07-29T15:45:21.319Z,5.57
2022-07-29T15:47:48.723Z,4.65
2022-07-29T15:50:16.847Z,6.03
2022-07-29T15:52:45.615Z,5.32
2022-07-29T15:55:13.050Z,5.05
2022-07-29T15:57:41.144Z,5.65
2022-07-29T16:00:12.232Z,7.18
2022-07-29T16:02:40.020Z,6.93
2022-07-29T16:05:09.548Z,7.63
2022-07-29T16:07:38.156Z,6.18
2022-07-29T16:10:07.857Z,7.53
2022-07-29T16:12:35.320Z,6.35
2022-07-29T16:15:07.583Z,8.87
2022-07-29T16:17:37.198Z,6.10
2022-07-29T16:20:05.285Z,7.00
2022-07-29T16:22:32.772Z,4.53
2022-07-29T16:25:00.263Z,7.38
2022-07-29T16:27:35.566Z,5.87
2022-07-29T16:30:05.968Z,5.03
2022-07-29T16:32:33.626Z,5.07
2022-07-29T16:35:02.647Z,7.45
2022-07-29T16:37:33.458Z,6.68
2022-07-29T16:40:04.651Z,8.00
2022-07-29T16:42:47.463Z,6.13
2022-07-29T16:45:15.103Z,4.30
2022-07-29T16:47:42.819Z,5.43
2022-07-29T16:50:10.848Z,7.55
2022-07-29T16:52:39.993Z,5.30
2022-07-29T16:55:08.333Z,8.13
2022-07-29T16:57:37.127Z,5.38
2022-07-29T17:00:05.283Z,7.25
2022-07-29T17:02:32.736Z,5.40
2022-07-29T17:05:00.170Z,6.17
2022-07-29T17:07:30.304Z,6.57
2022-07-29T17:10:03.299Z,7.53
2022-07-29T17:12:31.649Z,5.22
2022-07-29T17:15:00.437Z,4.80
2022-07-29T17:17:38.792Z,6.47
2022-07-29T17:20:17.511Z,6.93
2022-07-29T17:22:45.186Z,5.97
2022-07-29T17:25:20.908Z,6.63
2022-07-29T17:27:49.442Z,5.10
2022-07-29T17:30:18.518Z,7.97
2022-07-29T17:32:45.986Z,6.93
2022-07-29T17:35:33.823Z,6.30
2022-07-29T17:38:01.365Z,6.47
2022-07-29T17:40:28.759Z,9.60
2022-07-29T17:42:56.312Z,6.57
2022-07-29T17:45:25.183Z,8.40
2022-07-29T17:47:54.079Z,7.15
2022-07-29T17:50:24.445Z,7.97
2022-07-29T17:52:51.889Z,8.60
2022-07-29T17:55:19.462Z,7.53
2022-07-29T17:57:46.893Z,8.20
2022-07-29T18:00:16.742Z,8.18
2022-07-29T18:02:45.836Z,9.38
2022-07-29T18:05:13.373Z,7.30
2022-07-29T18:07:40.914Z,7.30
2022-07-29T18:10:08.912Z,10.68
2022-07-29T18:12:36.368Z,10.25
2022-07-29T18:15:03.959Z,6.97
2022-07-29T18:17:48.446Z,12.05
2022-07-29T18:20:20.391Z,8.23
2022-07-29T18:22:51.171Z,9.40
2022-07-29T18:25:18.596Z,6.47
2022-07-29T18:27:49.698Z,8.27
2022-07-29T18:30:17.616Z,7.70
2022-07-29T18:32:59.422Z,8.97
2022-07-29T18:35:33.860Z,10.55
2022-07-29T18:38:03.031Z,10.30
2022-07-29T18:40:31.024Z,7.95
2022-07-29T18:42:58.486Z,9.98
2022-07-29T18:45:29.037Z,10.17
2022-07-29T18:47:56.621Z,7.68
2022-07-29T18:50:29.239Z,7.15
2022-07-29T18:53:01.098Z,7.68
2022-07-29T18:55:28.566Z,7.28
2022-07-29T18:57:58.528Z,11.47
2022-07-29T19:00:27.627Z,7.05
2022-07-29T19:02:55.613Z,9.32
2022-07-29T19:05:24.028Z,8.88
2022-07-29T19:07:51.465Z,11.70
2022-07-29T19:10:20.307Z,9.43
2022-07-29T19:12:47.738Z,10.98
2022-07-29T19:15:19.896Z,11.38
2022-07-29T19:17:48.597Z,9.57
2022-07-29T19:20:18.022Z,10.48
2022-07-29T19:22:45.583Z,9.83
2022-07-29T19:25:13.233Z,8.75
2022-07-29T19:27:43.928Z,8.35
2022-07-29T19:30:11.721Z,8.88
2022-07-29T19:32:39.189Z,10.60
2022-07-29T19:35:26.923Z,7.90
2022-07-29T19:37:58.734Z,10.10
2022-07-29T19:40:27.241Z,8.95
2022-07-29T19:42:56.684Z,9.73
2022-07-29T19:45:25.648Z,9.88
2022-07-29T19:47:56.514Z,11.85
2022-07-29T19:50:26.705Z,7.30
2022-07-29T19:52:54.144Z,10.00
2022-07-29T19:55:21.873Z,8.23
2022-07-29T19:57:49.687Z,7.95
2022-07-29T20:00:20.981Z,9.43
2022-07-29T20:02:48.752Z,9.77
2022-07-29T20:05:18.995Z,10.00
2022-07-29T20:07:47.724Z,11.85
2022-07-29T20:10:15.517Z,8.43
2022-07-29T20:12:43.491Z,8.65
2022-07-29T20:15:16.251Z,6.73
2022-07-29T20:17:45.503Z,8.10
2022-07-29T20:20:13.049Z,8.00
2022-07-29T20:22:40.548Z,7.80
2022-07-29T20:25:10.081Z,10.02
2022-07-29T20:27:40.343Z,8.90
2022-07-29T20:30:08.620Z,7.57
2022-07-29T20:32:36.191Z,11.10
2022-07-29T20:35:08.907Z,7.57
2022-07-29T20:37:52.489Z,9.40
2022-07-29T20:40:29.048Z,7.40
2022-07-29T20:42:56.601Z,10.48
2022-07-29T20:45:24.652Z,9.25
2022-07-29T20:47:52.685Z,8.38
2022-07-29T20:50:23.853Z,10.05
2022-07-29T20:52:52.108Z,8.20
2022-07-29T20:55:19.492Z,7.80
2022-07-29T20:57:47.050Z,10.98
2022-07-29T21:00:14.964Z,10.00
2022-07-29T21:02:44.411Z,10.35
2022-07-29T21:05:11.933Z,8.60
2022-07-29T21:07:40.793Z,10.32
2022-07-29T21:10:08.969Z,7.93
2022-07-29T21:12:36.398Z,8.38
2022-07-29T21:15:06.196Z,7.45
2022-07-29T21:17:35.887Z,13.40
2022-07-29T21:20:03.884Z,8.68
2022-07-29T21:22:33.162Z,9.15
2022-07-29T21:25:02.460Z,11.75
2022-07-29T21:27:47.410Z,10.25
2022-07-29T21:30:14.883Z,9.43
2022-07-29T21:32:42.446Z,9.77
2022-07-29T21:35:22.329Z,9.50
2022-07-29T21:37:57.988Z,9.75
2022-07-29T21:40:26.844Z,10.45
2022-07-29T21:42:54.644Z,7.73
2022-07-29T21:45:22.055Z,10.18
2022-07-29T21:47:49.604Z,10.75
2022-07-29T21:50:17.031Z,8.93
2022-07-29T21:52:44.520Z,10.75
2022-07-29T21:55:12.218Z,11.40
2022-07-29T21:57:41.046Z,10.07
2022-07-29T22:00:11.353Z,9.80
2022-07-29T22:02:38.802Z,9.27
2022-07-29T22:05:06.581Z,9.27
2022-07-29T22:07:55.890Z,8.57
2022-07-29T22:10:21.574Z,9.50
2022-07-29T22:12:52.193Z,9.45
2022-07-29T22:15:19.745Z,8.93
2022-07-29T22:17:47.170Z,9.77
2022-07-29T22:20:15.193Z,8.63
2022-07-29T22:22:42.778Z,10.35
2022-07-29T22:25:11.173Z,13.20
2022-07-29T22:27:38.612Z,8.63
2022-07-29T22:30:08.854Z,9.23
2022-07-29T22:32:36.329Z,8.80
2022-07-29T22:35:03.800Z,7.45
2022-07-29T22:37:31.330Z,10.45
2022-07-29T22:39:58.792Z,10.02
2022-07-29T22:42:26.380Z,8.68
2022-07-29T22:44:53.835Z,8.73
2022-07-29T22:47:46.361Z,9.88
2022-07-29T22:50:10.279Z,11.43
2022-07-29T22:52:37.939Z,8.80
2022-07-29T22:55:05.580Z,8.55
2022-07-29T22:57:33.054Z,9.00
2022-07-29T23:00:01.648Z,10.25
2022-07-29T23:02:30.415Z,7.95
2022-07-29T23:04:57.831Z,8.57
2022-07-29T23:07:25.265Z,7.93
2022-07-29T23:09:52.848Z,8.93
2022-07-29T23:12:20.390Z,8.73
2022-07-29T23:14:47.881Z,8.80
2022-07-29T23:17:17.984Z,8.75
2022-07-29T23:19:46.944Z,9.32
2022-07-29T23:22:14.679Z,10.20
2022-07-29T23:24:42.249Z,11.43
2022-07-29T23:27:09.768Z,13.15
2022-07-29T23:29:37.226Z,9.13
2022-07-29T23:32:04.989Z,9.32
2022-07-29T23:34:32.445Z,7.53
2022-07-29T23:37:01.609Z,9.02
2022-07-29T23:39:29.318Z,11.95
2022-07-29T23:41:56.752Z,12.30
2022-07-29T23:44:24.572Z,10.38
2022-07-29T23:46:52.028Z,12.87
2022-07-29T23:49:19.546Z,8.70
2022-07-29T23:51:47.185Z,9.35
2022-07-29T23:54:15.992Z,9.40
2022-07-29T23:56:43.424Z,9.52
2022-07-29T23:59:13.924Z,10.10
